Lilly, PA (15938)

02:23 AM EDT del 27 Agosto 2016 (GMT -0400)
Brookside, Beaverdale | | Change Station

Alt. 1923 ft 40.32 °N, 78.70 °W | Updated 17 seconds ago

Clear
Sereno
59.2 °F
Sembra 59.2 °F
N
0.0
Vento Variabile Vento da Est

Oggi
Massima -- | Minima -- °F
--% Possibilità di precip.
Ieri
Massima -- | Minima -- °F
Precip. -- in
Pressione 30.18 in
Visibilità 10.0 miglia
Nuvole Sereno
Punto di rugiada 58 °F
Umidità 94%
Piovosità 0.00 in
Spessore del manto nevoso Non disponibile.
6:37 AM 7:53 PM
Luna calante, 27% visible
METAR KJST 270554Z AUTO 00000KT 10SM CLR 21/16 A3023 RMK AO2 SLP218 T02060156 10239 20189 58002
Pressione 30.18 in
Visibilità 10.0 miglia
Nuvole Sereno
Punto di rugiada 58 °F
Umidità 94%
Piovosità 0.00 in
Spessore del manto nevoso Non disponibile.
6:37 AM 7:53 PM
Luna calante, 27% visible
METAR KJST 270554Z AUTO 00000KT 10SM CLR 21/16 A3023 RMK AO2 SLP218 T02060156 10239 20189 58002

10-Day Weather Forecast

Almanac

Astronomia

Aug. 27, 2016 Alba Tramonto
Ora attuale
Crepuscolo civile
Crepuscolo nautico
Crepuscolo astronomico
Luna
Estensione della luce visibile
Lunghezza del giorno
Tomorrow will be .
, % of the Moon is Illuminated

Gli estremi di oggi

State Highs State Lows

Community

WunderPhotos

Upload Photos

1,935,303 foto caricate!

WunderBlog® & News

Nearby

Qualità dell'aria

  Qualità dell'aria Indice AQ Inquinante
Not available.

Profondità neve

Stazione Profondità Altitudine

Attività sismica

Città  Distanza Mag. Data & Ora
Minimo Magnitudo Mostrato è 2.5.

Temperature delle acque costiere

Località Temperatura

Stations

Stazioni meteo nelle vicinanze

Ubicazione della stazione Temp. Raffreddamento del vento Punto di rugiada Umidità Vento Precip. Alt. Aggiornato Tipo
                   

Watches & Warnings

There are currently no watches in effect.